createdAt,value
2022-10-28T00:00:54.783Z,9.81
2022-10-28T00:03:21.486Z,9.91
2022-10-28T00:05:48.501Z,9.84
2022-10-28T00:08:15.213Z,9.66
2022-10-28T00:10:41.802Z,9.59
2022-10-28T00:13:08.435Z,9.48
2022-10-28T00:15:35.735Z,9.41
2022-10-28T00:18:02.508Z,9.33
2022-10-28T00:20:30.849Z,9.06
2022-10-28T00:22:57.426Z,9.18
2022-10-28T00:25:24.970Z,9.16
2022-10-28T00:27:53.058Z,9.16
2022-10-28T00:30:20.310Z,9.13
2022-10-28T00:32:46.979Z,9.14
2022-10-28T00:35:13.834Z,9.14
2022-10-28T00:37:40.698Z,9.06
2022-10-28T00:40:07.866Z,9.06
2022-10-28T00:42:34.568Z,9.04
2022-10-28T00:45:02.704Z,9.04
2022-10-28T00:47:39.155Z,9.01
2022-10-28T00:50:30.446Z,9.04
2022-10-28T00:53:04.849Z,8.96
2022-10-28T00:55:33.049Z,8.95
2022-10-28T00:58:02.969Z,8.94
2022-10-28T01:00:29.994Z,8.91
2022-10-28T01:02:56.654Z,8.91
2022-10-28T01:05:27.663Z,8.91
2022-10-28T01:07:58.043Z,8.90
2022-10-28T01:10:37.874Z,8.73
2022-10-28T01:13:42.149Z,8.85
2022-10-28T01:16:24.846Z,8.80
2022-10-28T01:19:10.150Z,8.81
2022-10-28T01:21:55.107Z,8.82
2022-10-28T01:24:27.682Z,8.79
2022-10-28T01:27:15.938Z,8.75
2022-10-28T01:29:59.853Z,8.69
2022-10-28T01:32:52.923Z,8.62
2022-10-28T01:35:26.050Z,8.60
2022-10-28T01:38:15.915Z,8.64
2022-10-28T01:41:15.203Z,8.62
2022-10-28T01:44:02.607Z,8.61
2022-10-28T01:46:46.419Z,8.59
2022-10-28T01:49:39.605Z,8.61
2022-10-28T01:52:12.259Z,8.54
2022-10-28T01:54:42.308Z,8.46
2022-10-28T01:57:12.161Z,8.47
2022-10-28T01:59:40.591Z,8.49
2022-10-28T02:02:07.357Z,8.49
2022-10-28T02:04:34.003Z,8.45
2022-10-28T02:07:00.951Z,8.52
2022-10-28T02:09:47.719Z,8.50
2022-10-28T02:12:17.357Z,8.47
2022-10-28T02:14:55.857Z,8.45
2022-10-28T02:17:48.468Z,8.48
2022-10-28T02:20:31.204Z,8.38
2022-10-28T02:23:08.413Z,8.32
2022-10-28T02:26:03.702Z,8.37
2022-10-28T02:28:47.828Z,8.27
2022-10-28T02:31:36.810Z,8.27
2022-10-28T02:34:18.344Z,8.32
2022-10-28T02:36:49.434Z,8.23
2022-10-28T02:39:20.813Z,8.24
2022-10-28T02:42:13.129Z,8.14
2022-10-28T02:44:45.425Z,8.01
2022-10-28T02:47:18.395Z,8.01
2022-10-28T02:49:49.030Z,7.92
2022-10-28T02:52:17.280Z,7.89
2022-10-28T02:54:57.363Z,7.86
2022-10-28T02:57:27.033Z,7.89
2022-10-28T02:59:55.001Z,7.90
2022-10-28T03:02:21.764Z,7.89
2022-10-28T03:04:48.491Z,7.90
2022-10-28T03:07:15.166Z,7.83
2022-10-28T03:09:41.940Z,7.89
2022-10-28T03:12:08.580Z,7.85
2022-10-28T03:14:35.566Z,7.85
2022-10-28T03:17:02.264Z,7.79
2022-10-28T03:19:28.847Z,7.70
2022-10-28T03:21:55.443Z,7.67
2022-10-28T03:24:22.144Z,7.68
2022-10-28T03:26:48.723Z,7.67
2022-10-28T03:29:15.307Z,7.55
2022-10-28T03:31:42.026Z,7.45
2022-10-28T03:34:08.572Z,7.41
2022-10-28T03:36:35.134Z,7.35
2022-10-28T03:39:01.733Z,7.34
2022-10-28T03:41:28.349Z,7.26
2022-10-28T03:43:54.986Z,7.17
2022-10-28T03:46:21.537Z,7.06
2022-10-28T03:48:48.086Z,6.98
2022-10-28T03:51:14.807Z,6.95
2022-10-28T03:53:41.350Z,6.81
2022-10-28T03:56:08.459Z,6.69
2022-10-28T03:58:37.425Z,6.43
2022-10-28T04:01:06.962Z,6.45
2022-10-28T04:03:33.645Z,6.50
2022-10-28T04:06:00.334Z,6.49
2022-10-28T04:08:26.935Z,6.47
2022-10-28T04:10:53.517Z,6.45
2022-10-28T04:13:20.208Z,6.33
2022-10-28T04:15:46.842Z,6.37
2022-10-28T04:18:13.430Z,6.32
2022-10-28T04:20:40.650Z,6.27
2022-10-28T04:23:07.261Z,6.29
2022-10-28T04:25:33.839Z,6.24
2022-10-28T04:28:00.366Z,6.17
2022-10-28T04:30:27.029Z,6.01
2022-10-28T04:32:53.692Z,5.98
2022-10-28T04:35:20.305Z,6.00
2022-10-28T04:37:47.115Z,5.96
2022-10-28T04:40:13.766Z,5.94
2022-10-28T04:42:41.613Z,5.86
2022-10-28T04:45:08.818Z,5.96
2022-10-28T04:47:35.424Z,5.93
2022-10-28T04:50:02.343Z,5.85
2022-10-28T04:52:28.931Z,5.86
2022-10-28T04:54:55.525Z,5.98
2022-10-28T04:57:22.084Z,6.05
2022-10-28T04:59:48.763Z,6.08
2022-10-28T05:02:15.417Z,6.04
2022-10-28T05:04:42.211Z,5.99
2022-10-28T05:07:09.435Z,6.20
2022-10-28T05:09:36.085Z,6.26
2022-10-28T05:12:02.747Z,6.41
2022-10-28T05:14:29.335Z,6.43
2022-10-28T05:16:55.949Z,6.76
2022-10-28T05:19:22.646Z,7.05
2022-10-28T05:21:49.273Z,7.49
2022-10-28T05:24:15.864Z,7.95
2022-10-28T05:26:42.514Z,8.46
2022-10-28T05:29:09.271Z,8.82
2022-10-28T05:31:36.145Z,9.15
2022-10-28T05:34:02.951Z,9.71
2022-10-28T05:36:29.644Z,10.25
2022-10-28T05:38:56.242Z,10.87
2022-10-28T05:41:23.517Z,11.35
2022-10-28T05:43:51.461Z,11.51
2022-10-28T05:46:18.000Z,12.23
2022-10-28T05:48:44.650Z,12.71
2022-10-28T05:51:11.249Z,13.24
2022-10-28T05:53:37.825Z,13.63
2022-10-28T05:56:04.590Z,13.64
2022-10-28T05:58:31.125Z,13.83
2022-10-28T06:00:57.826Z,13.63
2022-10-28T06:03:28.617Z,12.76
2022-10-28T06:05:57.833Z,12.67
2022-10-28T06:08:24.451Z,12.46
2022-10-28T06:10:54.240Z,12.46
2022-10-28T06:13:21.000Z,12.16
2022-10-28T06:15:52.049Z,12.33
2022-10-28T06:18:19.131Z,12.37
2022-10-28T06:20:53.859Z,12.49
2022-10-28T06:23:21.061Z,12.50
2022-10-28T06:25:48.358Z,12.44
2022-10-28T06:28:15.058Z,11.89
2022-10-28T06:30:41.701Z,11.92
2022-10-28T06:33:08.259Z,11.68
2022-10-28T06:35:34.882Z,11.99
2022-10-28T06:38:04.821Z,12.14
2022-10-28T06:40:35.466Z,12.16
2022-10-28T06:43:05.539Z,12.63
2022-10-28T06:45:33.584Z,12.64
2022-10-28T06:48:04.167Z,13.30
2022-10-28T06:50:33.060Z,13.60
2022-10-28T06:52:59.866Z,13.68
2022-10-28T06:55:27.460Z,13.65
2022-10-28T06:57:58.688Z,12.90
2022-10-28T07:00:27.226Z,12.92
2022-10-28T07:02:54.641Z,12.76
2022-10-28T07:05:22.660Z,12.46
2022-10-28T07:07:49.233Z,12.33
2022-10-28T07:10:16.188Z,12.28
2022-10-28T07:12:42.761Z,12.12
2022-10-28T07:15:10.378Z,11.94
2022-10-28T07:17:37.091Z,11.81
2022-10-28T07:20:04.155Z,11.85
2022-10-28T07:22:30.789Z,11.92
2022-10-28T07:24:57.348Z,11.93
2022-10-28T07:27:23.939Z,12.06
2022-10-28T07:29:50.528Z,12.11
2022-10-28T07:32:17.198Z,11.98
2022-10-28T07:34:43.776Z,11.98
2022-10-28T07:37:12.863Z,12.32
2022-10-28T07:39:39.634Z,12.33
2022-10-28T07:42:06.390Z,12.54
2022-10-28T07:44:32.997Z,12.81
2022-10-28T07:46:59.643Z,12.81
2022-10-28T07:49:26.296Z,13.01
2022-10-28T07:51:53.412Z,12.97
2022-10-28T07:54:20.301Z,13.00
2022-10-28T07:56:46.884Z,13.09
2022-10-28T07:59:13.583Z,13.13
2022-10-28T08:01:40.308Z,13.32
2022-10-28T08:04:07.164Z,13.63
2022-10-28T08:06:35.319Z,13.46
2022-10-28T08:09:01.886Z,13.63
2022-10-28T08:11:28.551Z,13.62
2022-10-28T08:13:55.937Z,13.88
2022-10-28T08:16:22.777Z,14.04
2022-10-28T08:18:49.475Z,14.13
2022-10-28T08:21:16.585Z,14.32
2022-10-28T08:23:47.041Z,14.42
2022-10-28T08:26:15.162Z,14.35
2022-10-28T08:28:42.687Z,14.46
2022-10-28T08:31:10.321Z,14.54
2022-10-28T08:33:39.222Z,14.70
2022-10-28T08:36:07.297Z,14.98
2022-10-28T08:38:34.036Z,15.11
2022-10-28T08:41:06.531Z,15.23
2022-10-28T08:43:57.521Z,15.74
2022-10-28T08:47:03.078Z,15.79
2022-10-28T08:49:33.547Z,16.00
2022-10-28T08:52:21.490Z,16.05
2022-10-28T08:55:04.956Z,16.19
2022-10-28T08:57:53.941Z,16.34
2022-10-28T09:00:24.507Z,16.53
2022-10-28T09:02:54.039Z,16.78
2022-10-28T09:05:23.761Z,16.90
2022-10-28T09:07:50.726Z,17.18
2022-10-28T09:10:36.739Z,17.18
2022-10-28T09:13:11.360Z,17.27
2022-10-28T09:15:49.971Z,17.28
2022-10-28T09:18:28.410Z,16.93
2022-10-28T09:20:56.493Z,16.93
2022-10-28T09:23:31.078Z,17.12
2022-10-28T09:26:20.664Z,17.08
2022-10-28T09:29:03.020Z,17.07
2022-10-28T09:31:41.173Z,17.08
2022-10-28T09:34:17.861Z,17.27
2022-10-28T09:36:51.334Z,17.39
2022-10-28T09:39:28.045Z,17.53
2022-10-28T09:41:59.624Z,17.75
2022-10-28T09:44:34.396Z,17.68
2022-10-28T09:47:05.659Z,17.80
2022-10-28T09:49:36.504Z,17.83
2022-10-28T09:52:16.329Z,18.24
2022-10-28T09:54:49.779Z,18.12
2022-10-28T09:57:17.493Z,18.01
2022-10-28T09:59:44.723Z,18.08
2022-10-28T10:02:32.436Z,18.19
2022-10-28T10:05:02.000Z,18.38
2022-10-28T10:07:34.971Z,18.53
2022-10-28T10:10:11.429Z,18.39
2022-10-28T10:12:39.025Z,18.23
2022-10-28T10:15:08.232Z,18.13
2022-10-28T10:17:43.406Z,18.62
2022-10-28T10:20:11.691Z,18.96
2022-10-28T10:22:43.278Z,19.16
2022-10-28T10:25:18.990Z,19.16
2022-10-28T10:28:02.166Z,18.49
2022-10-28T10:30:48.934Z,18.64
2022-10-28T10:33:29.128Z,18.83
2022-10-28T10:36:00.344Z,18.92
2022-10-28T10:38:28.290Z,19.04
2022-10-28T10:40:55.228Z,18.94
2022-10-28T10:43:24.905Z,18.92
2022-10-28T10:46:04.288Z,19.17
2022-10-28T10:48:33.959Z,19.16
2022-10-28T10:51:07.280Z,19.19
2022-10-28T10:53:34.908Z,19.46
2022-10-28T10:56:08.647Z,19.17
2022-10-28T10:58:47.177Z,19.19
2022-10-28T11:01:19.588Z,19.31
2022-10-28T11:04:00.353Z,19.73
2022-10-28T11:06:33.095Z,19.78
2022-10-28T11:09:05.960Z,19.67
2022-10-28T11:11:39.899Z,19.79
2022-10-28T11:14:09.270Z,19.88
2022-10-28T11:16:53.654Z,19.51
2022-10-28T11:19:29.430Z,19.64
2022-10-28T11:22:14.978Z,19.82
2022-10-28T11:25:12.510Z,20.01
2022-10-28T11:27:50.055Z,20.03
2022-10-28T11:30:27.260Z,20.39
2022-10-28T11:33:28.254Z,20.52
2022-10-28T11:36:13.565Z,20.37
2022-10-28T11:39:01.025Z,20.14
2022-10-28T11:41:44.133Z,19.98
2022-10-28T11:44:22.608Z,19.95
2022-10-28T11:47:20.219Z,19.67
2022-10-28T11:49:46.799Z,19.74
2022-10-28T11:52:13.388Z,19.74
2022-10-28T11:54:50.255Z,19.71
2022-10-28T11:57:25.093Z,19.38
2022-10-28T11:59:57.325Z,19.21
2022-10-28T12:02:53.346Z,19.43
2022-10-28T12:05:47.309Z,19.57
2022-10-28T12:08:26.028Z,19.65
2022-10-28T12:11:17.237Z,19.94
2022-10-28T12:13:58.040Z,20.32
2022-10-28T12:16:36.764Z,20.35
2022-10-28T12:19:17.294Z,20.29
2022-10-28T12:21:57.257Z,19.98
2022-10-28T12:24:25.511Z,20.14
2022-10-28T12:26:56.866Z,20.18
2022-10-28T12:29:27.727Z,20.02
2022-10-28T12:32:00.595Z,19.64
2022-10-28T12:34:38.662Z,19.44
2022-10-28T12:37:11.544Z,19.66
2022-10-28T12:40:08.855Z,19.93
2022-10-28T12:42:38.906Z,20.24
2022-10-28T12:45:12.801Z,20.61
2022-10-28T12:47:56.779Z,20.57
2022-10-28T12:50:34.004Z,20.43
2022-10-28T12:53:19.242Z,20.34
2022-10-28T12:56:00.625Z,20.44
2022-10-28T12:58:35.626Z,20.82
2022-10-28T13:01:18.654Z,20.61
2022-10-28T13:03:49.586Z,20.63
2022-10-28T13:06:34.796Z,20.63
2022-10-28T13:09:13.087Z,20.58
2022-10-28T13:12:05.615Z,20.06
2022-10-28T13:14:57.006Z,20.27
2022-10-28T13:17:51.340Z,20.31
2022-10-28T13:20:54.340Z,19.76
2022-10-28T13:23:55.011Z,20.01
2022-10-28T13:26:35.378Z,20.00
2022-10-28T13:29:07.443Z,19.97
2022-10-28T13:31:37.024Z,20.00
2022-10-28T13:34:04.031Z,19.95
2022-10-28T13:36:36.637Z,20.27
2022-10-28T13:39:06.579Z,20.19
2022-10-28T13:41:43.548Z,20.22
2022-10-28T13:44:27.025Z,20.05
2022-10-28T13:46:59.658Z,20.03
2022-10-28T13:49:31.058Z,20.04
2022-10-28T13:52:06.793Z,20.02
2022-10-28T13:54:53.454Z,20.13
2022-10-28T13:57:38.022Z,20.00
2022-10-28T14:02:56.517Z,20.33
2022-10-28T14:05:46.038Z,20.48
2022-10-28T14:08:24.573Z,20.44
2022-10-28T14:11:05.827Z,20.34
2022-10-28T14:13:37.463Z,20.19
2022-10-28T14:16:24.175Z,20.20
2022-10-28T14:19:06.494Z,20.11
2022-10-28T14:22:01.470Z,20.09
2022-10-28T14:24:36.244Z,20.10
2022-10-28T14:27:08.866Z,19.97
2022-10-28T14:29:50.092Z,19.91
2022-10-28T14:32:31.825Z,19.91
2022-10-28T14:35:10.608Z,19.96
2022-10-28T14:38:01.361Z,19.99
2022-10-28T14:40:45.990Z,20.13
2022-10-28T14:43:30.837Z,21.41
2022-10-28T14:46:12.768Z,25.82
2022-10-28T14:48:47.787Z,24.28
2022-10-28T14:51:26.144Z,22.03
2022-10-28T14:53:59.606Z,21.22
2022-10-28T14:56:30.494Z,20.66
2022-10-28T14:59:40.533Z,20.23
2022-10-28T15:02:16.993Z,19.91
2022-10-28T15:04:46.359Z,19.58
2022-10-28T15:07:19.341Z,19.40
2022-10-28T15:09:53.532Z,19.09
2022-10-28T15:12:22.653Z,18.74
2022-10-28T15:14:55.801Z,18.36
2022-10-28T15:17:28.170Z,18.28
2022-10-28T15:20:00.533Z,18.18
2022-10-28T15:22:33.142Z,18.12
2022-10-28T15:25:06.092Z,18.07
2022-10-28T15:27:35.410Z,17.79
2022-10-28T15:30:04.290Z,17.68
2022-10-28T15:32:33.726Z,17.65
2022-10-28T15:35:38.545Z,17.61
2022-10-28T15:38:25.320Z,17.53
2022-10-28T15:40:52.338Z,17.37
2022-10-28T15:43:23.682Z,17.40
2022-10-28T15:45:50.682Z,17.26
2022-10-28T15:48:27.516Z,17.10
2022-10-28T15:51:14.999Z,16.92
2022-10-28T15:53:44.357Z,16.76
2022-10-28T15:56:13.886Z,16.67
2022-10-28T15:58:42.234Z,16.55
2022-10-28T16:01:27.692Z,16.54
2022-10-28T16:03:54.357Z,16.40
2022-10-28T16:06:27.015Z,16.44
2022-10-28T16:08:59.444Z,16.41
2022-10-28T16:11:26.481Z,16.29
2022-10-28T16:13:53.360Z,16.27
2022-10-28T16:16:27.208Z,16.19
2022-10-28T16:19:06.923Z,15.95
2022-10-28T16:21:35.641Z,15.89
2022-10-28T16:24:02.965Z,15.66
2022-10-28T16:26:31.904Z,15.61
2022-10-28T16:28:58.495Z,15.52
2022-10-28T16:31:28.532Z,15.45
2022-10-28T16:33:55.398Z,15.41
2022-10-28T16:36:22.005Z,15.30
2022-10-28T16:38:48.617Z,15.25
2022-10-28T16:41:18.677Z,15.20
2022-10-28T16:43:46.102Z,15.14
2022-10-28T16:46:13.707Z,15.31
2022-10-28T16:48:40.913Z,15.39
2022-10-28T16:51:15.336Z,15.38
2022-10-28T16:53:47.023Z,15.36
2022-10-28T16:56:15.862Z,15.35
2022-10-28T16:58:43.763Z,15.33
2022-10-28T17:01:10.846Z,15.29
2022-10-28T17:03:37.592Z,15.34
2022-10-28T17:06:04.244Z,15.26
2022-10-28T17:08:57.058Z,15.18
2022-10-28T17:11:17.865Z,15.31
2022-10-28T17:13:44.497Z,15.22
2022-10-28T17:16:12.913Z,15.05
2022-10-28T17:18:40.155Z,15.01
2022-10-28T17:21:06.802Z,14.94
2022-10-28T17:23:33.463Z,14.85
2022-10-28T17:26:02.362Z,14.82
2022-10-28T17:28:29.473Z,14.73
2022-10-28T17:31:03.486Z,14.64
2022-10-28T17:33:30.064Z,14.68
2022-10-28T17:36:00.412Z,14.68
2022-10-28T17:38:26.997Z,14.66
2022-10-28T17:40:55.157Z,14.61
2022-10-28T17:43:22.637Z,14.44
2022-10-28T17:45:49.540Z,14.51
2022-10-28T17:48:16.277Z,14.40
2022-10-28T17:50:44.258Z,14.42
2022-10-28T17:53:11.762Z,14.32
2022-10-28T17:55:38.429Z,14.52
2022-10-28T17:58:05.190Z,14.41
2022-10-28T18:00:32.045Z,14.49
2022-10-28T18:02:58.753Z,14.28
2022-10-28T18:05:25.421Z,14.25
2022-10-28T18:07:55.277Z,14.27
2022-10-28T18:10:22.198Z,14.32
2022-10-28T18:12:52.502Z,14.29
2022-10-28T18:15:19.552Z,14.26
2022-10-28T18:17:50.338Z,14.02
2022-10-28T18:20:17.324Z,14.00
2022-10-28T18:22:43.991Z,13.97
2022-10-28T18:25:10.797Z,13.98
2022-10-28T18:27:38.394Z,14.04
2022-10-28T18:30:05.494Z,14.11
2022-10-28T18:32:32.814Z,14.14
2022-10-28T18:34:59.606Z,14.08
2022-10-28T18:37:28.784Z,13.99
2022-10-28T18:39:55.660Z,13.92
2022-10-28T18:42:22.519Z,13.85
2022-10-28T18:44:49.385Z,13.81
2022-10-28T18:47:16.137Z,13.74
2022-10-28T18:49:45.778Z,13.73
2022-10-28T18:52:12.558Z,13.65
2022-10-28T18:54:39.358Z,13.43
2022-10-28T18:57:06.206Z,13.46
2022-10-28T18:59:33.022Z,13.38
2022-10-28T19:02:06.107Z,13.32
2022-10-28T19:04:32.939Z,13.29
2022-10-28T19:06:59.774Z,13.23
2022-10-28T19:09:26.689Z,13.18
2022-10-28T19:11:53.459Z,13.09
2022-10-28T19:14:20.184Z,13.08
2022-10-28T19:16:47.121Z,13.11
2022-10-28T19:19:13.799Z,13.09
2022-10-28T19:21:40.763Z,13.05
2022-10-28T19:24:07.715Z,12.96
2022-10-28T19:26:35.117Z,12.80
2022-10-28T19:29:05.398Z,12.68
2022-10-28T19:31:36.279Z,12.56
2022-10-28T19:34:02.935Z,12.43
2022-10-28T19:36:30.476Z,12.40
2022-10-28T19:38:58.169Z,12.29
2022-10-28T19:41:27.748Z,12.12
2022-10-28T19:44:04.003Z,12.06
2022-10-28T19:46:33.795Z,11.89
2022-10-28T19:49:03.177Z,11.58
2022-10-28T19:51:32.024Z,11.66
2022-10-28T19:54:00.924Z,11.61
2022-10-28T19:56:28.887Z,11.50
2022-10-28T19:58:57.815Z,11.47
2022-10-28T20:01:26.687Z,11.38
2022-10-28T20:03:54.880Z,11.04
2022-10-28T20:06:26.727Z,11.02
2022-10-28T20:08:53.733Z,10.78
2022-10-28T20:11:26.150Z,10.73
2022-10-28T20:13:58.800Z,10.67
2022-10-28T20:16:25.732Z,10.53
2022-10-28T20:18:55.009Z,10.47
2022-10-28T20:21:23.001Z,10.36
2022-10-28T20:23:55.459Z,10.36
2022-10-28T20:26:27.543Z,10.44
2022-10-28T20:28:54.247Z,10.42
2022-10-28T20:31:23.648Z,10.41
2022-10-28T20:33:55.212Z,10.36
2022-10-28T20:36:30.589Z,10.34
2022-10-28T20:39:11.849Z,10.28
2022-10-28T20:41:39.815Z,10.36
2022-10-28T20:44:07.090Z,10.37
2022-10-28T20:46:34.492Z,10.30
2022-10-28T20:49:01.148Z,9.75
2022-10-28T20:51:32.078Z,9.71
2022-10-28T20:53:59.288Z,9.67
2022-10-28T20:56:28.115Z,9.71
2022-10-28T20:58:56.153Z,9.70
2022-10-28T21:01:34.464Z,9.73
2022-10-28T21:04:03.707Z,9.65
2022-10-28T21:06:31.306Z,9.63
2022-10-28T21:08:59.176Z,9.66
2022-10-28T21:11:26.991Z,9.54
2022-10-28T21:13:56.660Z,9.45
2022-10-28T21:16:24.007Z,9.54
2022-10-28T21:18:51.306Z,9.58
2022-10-28T21:21:19.921Z,9.52
2022-10-28T21:23:46.632Z,9.59
2022-10-28T21:26:14.037Z,9.61
2022-10-28T21:28:44.316Z,9.56
2022-10-28T21:31:13.715Z,9.55
2022-10-28T21:33:41.675Z,9.52
2022-10-28T21:36:12.513Z,9.51
2022-10-28T21:38:39.530Z,9.51
2022-10-28T21:41:13.186Z,9.39
2022-10-28T21:43:42.196Z,9.35
2022-10-28T21:46:09.271Z,9.16
2022-10-28T21:48:37.449Z,9.01
2022-10-28T21:51:09.924Z,8.92
2022-10-28T21:53:40.389Z,8.83
2022-10-28T21:56:18.102Z,8.79
2022-10-28T21:58:45.607Z,8.77
2022-10-28T22:01:22.504Z,8.62
2022-10-28T22:03:50.788Z,8.51
2022-10-28T22:06:17.660Z,8.41
2022-10-28T22:08:44.914Z,8.29
2022-10-28T22:11:16.835Z,8.19
2022-10-28T22:13:43.580Z,8.24
2022-10-28T22:16:12.456Z,8.26
2022-10-28T22:18:39.773Z,8.24
2022-10-28T22:21:12.413Z,8.32
2022-10-28T22:23:39.858Z,8.35
2022-10-28T22:26:09.529Z,8.31
2022-10-28T22:28:36.531Z,8.31
2022-10-28T22:31:06.263Z,8.22
2022-10-28T22:33:33.107Z,8.13
2022-10-28T22:36:03.705Z,8.18
2022-10-28T22:38:30.520Z,8.02
2022-10-28T22:41:13.671Z,8.07
2022-10-28T22:43:41.452Z,8.09
2022-10-28T22:46:09.344Z,8.08
2022-10-28T22:48:35.992Z,8.13
2022-10-28T22:51:03.361Z,8.06
2022-10-28T22:53:30.535Z,8.16
2022-10-28T22:55:57.649Z,8.22
2022-10-28T22:58:25.108Z,8.16
2022-10-28T23:00:51.747Z,8.21
2022-10-28T23:03:18.653Z,8.22
2022-10-28T23:05:45.205Z,8.09
2022-10-28T23:08:15.742Z,7.97
2022-10-28T23:10:42.484Z,7.89
2022-10-28T23:13:12.253Z,7.80
2022-10-28T23:15:38.840Z,7.78
2022-10-28T23:18:05.405Z,7.64
2022-10-28T23:20:32.035Z,7.60
2022-10-28T23:22:58.673Z,7.57
2022-10-28T23:25:25.328Z,7.52
2022-10-28T23:27:52.111Z,7.52
2022-10-28T23:30:18.953Z,7.40
2022-10-28T23:32:45.604Z,7.38
2022-10-28T23:35:12.223Z,7.36
2022-10-28T23:37:38.862Z,7.52
2022-10-28T23:40:06.049Z,7.61
2022-10-28T23:42:32.652Z,7.62
2022-10-28T23:44:59.242Z,7.66
2022-10-28T23:47:25.926Z,7.66
2022-10-28T23:49:52.979Z,7.60
2022-10-28T23:52:19.639Z,7.64
2022-10-28T23:54:46.192Z,7.57
2022-10-28T23:57:12.912Z,7.54
2022-10-28T23:59:39.495Z,7.58
